createdAt,value
2023-10-20T00:00:34.915Z,50.90
2023-10-20T00:03:03.367Z,50.30
2023-10-20T00:05:31.892Z,52.43
2023-10-20T00:08:01.290Z,49.97
2023-10-20T00:10:32.426Z,50.90
2023-10-20T00:13:00.764Z,51.50
2023-10-20T00:15:29.348Z,50.73
2023-10-20T00:17:57.400Z,52.37
2023-10-20T00:20:26.007Z,51.40
2023-10-20T00:22:54.086Z,51.20
2023-10-20T00:25:23.877Z,52.10
2023-10-20T00:27:51.967Z,54.57
2023-10-20T00:30:20.107Z,49.97
2023-10-20T00:32:48.107Z,51.53
2023-10-20T00:35:16.237Z,51.33
2023-10-20T00:37:44.503Z,51.63
2023-10-20T00:40:13.731Z,51.00
2023-10-20T00:42:44.268Z,53.27
2023-10-20T00:45:13.129Z,49.93
2023-10-20T00:47:42.214Z,50.53
2023-10-20T00:50:13.284Z,50.30
2023-10-20T00:52:43.254Z,51.30
2023-10-20T00:55:12.776Z,50.90
2023-10-20T00:57:44.782Z,49.60
2023-10-20T01:00:15.056Z,49.40
2023-10-20T01:02:43.189Z,50.03
2023-10-20T01:05:15.959Z,50.10
2023-10-20T01:07:44.894Z,59.90
2023-10-20T01:10:13.010Z,50.17
2023-10-20T01:12:42.736Z,51.00
2023-10-20T01:15:11.754Z,49.10
2023-10-20T01:17:40.842Z,51.53
2023-10-20T01:20:10.054Z,49.63
2023-10-20T01:22:38.183Z,52.00
2023-10-20T01:25:08.238Z,48.93
2023-10-20T01:27:36.307Z,50.63
2023-10-20T01:30:04.507Z,50.57
2023-10-20T01:32:32.700Z,50.70
2023-10-20T01:35:01.404Z,52.77
2023-10-20T01:37:29.462Z,48.53
2023-10-20T01:39:57.550Z,51.07
2023-10-20T01:42:27.020Z,52.50
2023-10-20T01:44:55.049Z,49.77
2023-10-20T01:47:23.187Z,50.67
2023-10-20T01:49:51.607Z,52.60
2023-10-20T01:52:19.636Z,49.67
2023-10-20T01:54:48.478Z,49.47
2023-10-20T01:57:16.717Z,48.87
2023-10-20T01:59:46.070Z,52.30
2023-10-20T02:02:15.087Z,49.97
2023-10-20T02:04:43.341Z,50.43
2023-10-20T02:07:13.303Z,51.30
2023-10-20T02:09:41.568Z,48.87
2023-10-20T02:12:11.496Z,50.30
2023-10-20T02:14:39.572Z,50.80
2023-10-20T02:17:09.653Z,48.00
2023-10-20T02:19:37.945Z,55.93
2023-10-20T02:22:06.170Z,50.40
2023-10-20T02:24:34.508Z,49.80
2023-10-20T02:27:02.782Z,48.47
2023-10-20T02:29:31.091Z,49.10
2023-10-20T02:31:59.197Z,48.50
2023-10-20T02:34:28.626Z,49.67
2023-10-20T02:36:56.636Z,49.20
2023-10-20T02:39:24.606Z,48.90
2023-10-20T02:41:52.597Z,48.10
2023-10-20T02:44:20.727Z,50.10
2023-10-20T02:46:48.739Z,49.53
2023-10-20T02:49:17.166Z,50.83
2023-10-20T02:51:46.693Z,49.10
2023-10-20T02:54:14.713Z,51.93
2023-10-20T02:56:42.780Z,49.87
2023-10-20T02:59:10.862Z,51.67
2023-10-20T03:01:39.063Z,50.60
2023-10-20T03:04:08.043Z,49.33
2023-10-20T03:06:36.355Z,49.93
2023-10-20T03:09:06.221Z,49.40
2023-10-20T03:11:34.346Z,51.97
2023-10-20T03:14:03.113Z,51.83
2023-10-20T03:16:31.261Z,50.93
2023-10-20T03:18:59.474Z,49.27
2023-10-20T03:21:27.698Z,48.17
2023-10-20T03:23:55.790Z,50.70
2023-10-20T03:26:25.341Z,52.80
2023-10-20T03:28:53.441Z,50.23
2023-10-20T03:31:21.471Z,49.27
2023-10-20T03:33:49.643Z,48.57
2023-10-20T03:36:17.683Z,49.87
2023-10-20T03:38:45.898Z,48.53
2023-10-20T03:41:15.697Z,50.30
2023-10-20T03:43:45.769Z,48.40
2023-10-20T03:46:15.055Z,52.13
2023-10-20T03:48:43.915Z,49.77
2023-10-20T03:51:13.985Z,49.77
2023-10-20T03:53:47.823Z,51.63
2023-10-20T03:56:20.249Z,48.87
2023-10-20T03:58:50.101Z,48.43
2023-10-20T04:01:18.265Z,48.90
2023-10-20T04:03:50.929Z,49.37
2023-10-20T04:06:20.295Z,49.50
2023-10-20T04:08:48.386Z,51.87
2023-10-20T04:11:16.484Z,48.17
2023-10-20T04:13:45.234Z,48.10
2023-10-20T04:16:15.507Z,47.47
2023-10-20T04:18:44.559Z,47.70
2023-10-20T04:21:13.545Z,48.70
2023-10-20T04:23:45.037Z,48.90
2023-10-20T04:26:21.985Z,48.30
2023-10-20T04:29:04.097Z,49.40
2023-10-20T04:31:50.954Z,49.00
2023-10-20T04:34:38.801Z,47.80
2023-10-20T04:37:24.719Z,48.37
2023-10-20T04:40:10.153Z,47.57
2023-10-20T04:43:05.544Z,50.33
2023-10-20T04:46:02.720Z,58.10
2023-10-20T04:48:57.732Z,47.97
2023-10-20T04:51:44.253Z,47.63
2023-10-20T04:54:20.817Z,48.30
2023-10-20T04:57:17.402Z,48.83
2023-10-20T04:59:45.959Z,49.40
2023-10-20T05:02:25.118Z,49.30
2023-10-20T05:04:54.647Z,47.43
2023-10-20T05:07:27.745Z,48.30
2023-10-20T05:09:56.857Z,57.87
2023-10-20T05:12:25.139Z,50.63
2023-10-20T05:14:54.159Z,49.50
2023-10-20T05:17:22.340Z,49.87
2023-10-20T05:19:50.800Z,50.60
2023-10-20T05:22:20.211Z,50.53
2023-10-20T05:24:48.334Z,49.60
2023-10-20T05:27:16.396Z,51.43
2023-10-20T05:29:44.600Z,49.37
2023-10-20T05:32:12.923Z,50.37
2023-10-20T05:34:41.018Z,50.60
2023-10-20T05:37:09.117Z,49.90
2023-10-20T05:39:39.774Z,50.30
2023-10-20T05:42:07.831Z,56.63
2023-10-20T05:44:39.102Z,49.47
2023-10-20T05:47:07.381Z,49.80
2023-10-20T05:49:35.504Z,52.00
2023-10-20T05:52:03.741Z,52.43
2023-10-20T05:54:32.893Z,54.90
2023-10-20T05:57:02.505Z,50.17
2023-10-20T05:59:30.559Z,55.13
2023-10-20T06:01:59.695Z,51.40
2023-10-20T06:04:28.678Z,51.60
2023-10-20T06:06:57.540Z,53.67
2023-10-20T06:09:26.494Z,54.03
2023-10-20T06:11:55.208Z,50.30
2023-10-20T06:14:25.014Z,53.53
2023-10-20T06:16:53.129Z,50.73
2023-10-20T06:19:22.466Z,51.80
2023-10-20T06:21:51.318Z,55.53
2023-10-20T06:24:19.410Z,54.37
2023-10-20T06:26:48.968Z,51.87
2023-10-20T06:29:27.579Z,57.03
2023-10-20T06:32:10.614Z,55.77
2023-10-20T06:34:41.605Z,56.60
2023-10-20T06:37:09.878Z,52.87
2023-10-20T06:39:39.169Z,54.27
2023-10-20T06:42:07.734Z,52.97
2023-10-20T06:44:36.178Z,52.20
2023-10-20T06:47:06.041Z,58.27
2023-10-20T06:49:35.103Z,52.53
2023-10-20T06:52:05.406Z,57.77
2023-10-20T06:54:33.871Z,52.27
2023-10-20T06:57:02.192Z,51.17
2023-10-20T06:59:30.392Z,56.10
2023-10-20T07:02:01.564Z,60.00
2023-10-20T07:04:33.196Z,56.43
2023-10-20T07:07:01.557Z,54.00
2023-10-20T07:09:30.038Z,53.93
2023-10-20T07:11:58.129Z,53.77
2023-10-20T07:14:26.250Z,52.47
2023-10-20T07:16:58.823Z,53.60
2023-10-20T07:19:26.876Z,55.43
2023-10-20T07:21:56.859Z,54.50
2023-10-20T07:24:25.448Z,54.63
2023-10-20T07:26:53.518Z,55.63
2023-10-20T07:29:21.729Z,61.13
2023-10-20T07:31:50.100Z,55.10
2023-10-20T07:34:18.299Z,53.37
2023-10-20T07:36:47.303Z,51.60
2023-10-20T07:39:18.404Z,52.90
2023-10-20T07:41:46.836Z,55.17
2023-10-20T07:44:17.133Z,60.27
2023-10-20T07:46:45.315Z,53.53
2023-10-20T07:49:13.705Z,57.87
2023-10-20T07:51:42.230Z,56.63
2023-10-20T07:54:11.613Z,55.70
2023-10-20T07:56:41.286Z,54.37
2023-10-20T07:59:09.970Z,55.90
2023-10-20T08:01:38.131Z,55.10
2023-10-20T08:04:06.893Z,57.20
2023-10-20T08:06:36.615Z,58.67
2023-10-20T08:09:05.383Z,55.40
2023-10-20T08:11:33.478Z,52.53
2023-10-20T08:14:02.867Z,60.77
2023-10-20T08:16:31.079Z,55.73
2023-10-20T08:18:59.499Z,59.53
2023-10-20T08:21:31.076Z,55.00
2023-10-20T08:24:00.255Z,53.70
2023-10-20T08:26:28.540Z,59.93
2023-10-20T08:28:56.591Z,54.60
2023-10-20T08:31:27.987Z,57.20
2023-10-20T08:33:56.352Z,54.60
2023-10-20T08:36:24.515Z,59.20
2023-10-20T08:38:54.061Z,62.93
2023-10-20T08:41:23.966Z,53.13
2023-10-20T08:43:53.468Z,56.50
2023-10-20T08:46:23.930Z,57.07
2023-10-20T08:48:54.910Z,56.20
2023-10-20T08:51:24.969Z,54.57
2023-10-20T08:53:53.130Z,57.97
2023-10-20T08:56:23.886Z,56.47
2023-10-20T08:58:52.176Z,53.20
2023-10-20T09:01:20.392Z,55.17
2023-10-20T09:03:51.944Z,54.87
2023-10-20T09:06:22.118Z,65.07
2023-10-20T09:08:52.014Z,52.47
2023-10-20T09:11:26.423Z,55.00
2023-10-20T09:13:54.605Z,56.20
2023-10-20T09:16:24.489Z,53.90
2023-10-20T09:18:54.721Z,55.33
2023-10-20T09:21:26.994Z,54.27
2023-10-20T09:23:56.570Z,56.77
2023-10-20T09:26:25.571Z,54.50
2023-10-20T09:28:55.880Z,53.27
2023-10-20T09:31:26.306Z,54.63
2023-10-20T09:33:54.991Z,56.47
2023-10-20T09:36:25.145Z,55.03
2023-10-20T09:38:55.079Z,51.00
2023-10-20T09:41:24.629Z,52.27
2023-10-20T09:43:54.753Z,57.10
2023-10-20T09:46:32.831Z,55.43
2023-10-20T09:49:08.505Z,53.27
2023-10-20T09:51:38.688Z,52.50
2023-10-20T09:54:07.579Z,52.30
2023-10-20T09:56:36.051Z,52.27
2023-10-20T09:59:07.350Z,55.73
2023-10-20T10:01:35.555Z,53.77
2023-10-20T10:04:04.950Z,53.20
2023-10-20T10:06:38.126Z,55.60
2023-10-20T10:09:07.001Z,52.90
2023-10-20T10:11:43.920Z,51.00
2023-10-20T10:14:21.016Z,52.50
2023-10-20T10:16:54.745Z,50.77
2023-10-20T10:19:26.207Z,53.30
2023-10-20T10:21:58.375Z,53.53
2023-10-20T10:24:26.915Z,51.97
2023-10-20T10:26:57.889Z,52.47
2023-10-20T10:29:48.612Z,51.77
2023-10-20T10:32:20.376Z,54.50
2023-10-20T10:34:50.050Z,50.00
2023-10-20T10:37:30.583Z,51.03
2023-10-20T10:40:10.788Z,55.90
2023-10-20T10:42:44.043Z,50.93
2023-10-20T10:45:23.065Z,51.73
2023-10-20T10:47:51.903Z,53.17
2023-10-20T10:50:21.943Z,49.60
2023-10-20T10:52:51.794Z,49.00
2023-10-20T10:55:20.554Z,55.10
2023-10-20T10:57:48.735Z,50.10
2023-10-20T11:00:18.156Z,53.00
2023-10-20T11:02:47.290Z,54.03
2023-10-20T11:05:17.099Z,50.60
2023-10-20T11:07:59.021Z,53.70
2023-10-20T11:10:28.940Z,50.60
2023-10-20T11:12:57.660Z,50.97
2023-10-20T11:15:29.567Z,49.80
2023-10-20T11:18:00.088Z,49.87
2023-10-20T11:20:31.361Z,55.60
2023-10-20T11:23:02.128Z,53.63
2023-10-20T11:25:31.663Z,52.53
2023-10-20T11:27:59.788Z,51.97
2023-10-20T11:30:29.428Z,48.87
2023-10-20T11:32:58.199Z,49.63
2023-10-20T11:35:28.011Z,50.13
2023-10-20T11:37:57.146Z,48.80
2023-10-20T11:40:28.384Z,48.47
2023-10-20T11:42:57.071Z,48.37
2023-10-20T11:45:25.691Z,48.93
2023-10-20T11:47:54.253Z,48.20
2023-10-20T11:50:24.920Z,48.90
2023-10-20T11:52:53.281Z,48.33
2023-10-20T11:55:21.455Z,48.73
2023-10-20T11:57:50.980Z,48.00
2023-10-20T12:00:20.663Z,48.20
2023-10-20T12:02:50.205Z,48.90
2023-10-20T12:05:18.756Z,48.60
2023-10-20T12:07:46.904Z,50.33
2023-10-20T12:10:15.087Z,48.10
2023-10-20T12:12:43.309Z,48.37
2023-10-20T12:15:13.265Z,48.30
2023-10-20T12:17:42.576Z,47.60
2023-10-20T12:20:14.334Z,47.90
2023-10-20T12:22:42.523Z,49.80
2023-10-20T12:25:11.177Z,49.20
2023-10-20T12:27:39.466Z,47.97
2023-10-20T12:30:10.322Z,48.77
2023-10-20T12:32:39.854Z,47.97
2023-10-20T12:35:08.427Z,47.77
2023-10-20T12:37:36.405Z,48.80
2023-10-20T12:40:05.018Z,48.47
2023-10-20T12:42:33.544Z,48.10
2023-10-20T12:45:02.603Z,47.80
2023-10-20T12:47:33.295Z,47.70
2023-10-20T12:50:02.825Z,47.80
2023-10-20T12:52:30.907Z,47.87
2023-10-20T12:54:58.911Z,48.70
2023-10-20T12:57:26.913Z,48.03
2023-10-20T12:59:55.281Z,47.70
2023-10-20T13:02:23.416Z,49.60
2023-10-20T13:04:52.421Z,47.83
2023-10-20T13:07:21.961Z,47.80
2023-10-20T13:09:50.163Z,47.90
2023-10-20T13:12:18.174Z,48.20
2023-10-20T13:14:46.319Z,47.73
2023-10-20T13:17:15.779Z,47.30
2023-10-20T13:19:43.922Z,49.77
2023-10-20T13:22:13.595Z,48.00
2023-10-20T13:24:43.157Z,47.57
2023-10-20T13:27:11.380Z,48.70
2023-10-20T13:29:40.896Z,48.87
2023-10-20T13:32:09.043Z,47.83
2023-10-20T13:34:37.500Z,47.57
2023-10-20T13:37:06.553Z,51.70
2023-10-20T13:39:34.714Z,48.17
2023-10-20T13:42:05.594Z,51.50
2023-10-20T13:44:33.744Z,48.20
2023-10-20T13:47:01.894Z,48.47
2023-10-20T13:49:30.197Z,47.77
2023-10-20T13:51:58.380Z,48.70
2023-10-20T13:54:26.952Z,47.60
2023-10-20T13:56:55.200Z,48.40
2023-10-20T13:59:24.750Z,48.40
2023-10-20T14:01:53.016Z,47.87
2023-10-20T14:04:24.458Z,48.50
2023-10-20T14:06:53.320Z,48.77
2023-10-20T14:09:23.124Z,49.40
2023-10-20T14:11:52.113Z,47.37
2023-10-20T14:14:20.715Z,48.20
2023-10-20T14:16:50.345Z,47.90
2023-10-20T14:19:18.444Z,48.23
2023-10-20T14:21:46.592Z,48.40
2023-10-20T14:24:14.822Z,47.63
2023-10-20T14:26:43.057Z,48.80
2023-10-20T14:29:11.310Z,50.70
2023-10-20T14:31:39.475Z,50.37
2023-10-20T14:34:09.251Z,47.27
2023-10-20T14:36:37.468Z,48.57
2023-10-20T14:39:05.997Z,51.77
2023-10-20T14:41:34.047Z,48.20
2023-10-20T14:44:02.057Z,48.87
2023-10-20T14:46:30.369Z,48.50
2023-10-20T14:48:58.607Z,49.93
2023-10-20T14:51:28.068Z,49.47
2023-10-20T14:53:56.257Z,47.80
2023-10-20T14:56:25.087Z,49.43
2023-10-20T14:58:53.237Z,48.20
2023-10-20T15:01:21.342Z,49.00
2023-10-20T15:03:50.122Z,52.57
2023-10-20T15:06:19.354Z,49.00
2023-10-20T15:08:50.068Z,52.70
2023-10-20T15:11:18.987Z,48.17
2023-10-20T15:13:47.323Z,50.63
2023-10-20T15:16:17.758Z,50.00
2023-10-20T15:18:46.648Z,47.97
2023-10-20T15:21:14.711Z,48.47
2023-10-20T15:23:42.929Z,53.57
2023-10-20T15:26:12.430Z,48.37
2023-10-20T15:28:40.550Z,49.03
2023-10-20T15:31:10.217Z,50.07
2023-10-20T15:33:39.579Z,48.20
2023-10-20T15:36:08.709Z,51.00
2023-10-20T15:38:37.516Z,50.70
2023-10-20T15:41:13.875Z,50.10
2023-10-20T15:43:42.250Z,48.63
2023-10-20T15:46:10.791Z,48.47
2023-10-20T15:48:39.325Z,56.07
2023-10-20T15:51:09.360Z,66.77
2023-10-20T15:53:37.894Z,49.80
2023-10-20T15:56:07.038Z,57.13
2023-10-20T15:58:36.934Z,50.77
2023-10-20T16:01:06.083Z,51.80
2023-10-20T16:03:34.680Z,52.23
2023-10-20T16:06:04.355Z,54.63
2023-10-20T16:08:32.894Z,50.50
2023-10-20T16:11:01.146Z,49.17
2023-10-20T16:13:29.400Z,49.53
2023-10-20T16:15:58.944Z,48.97
2023-10-20T16:18:27.491Z,48.20
2023-10-20T16:20:56.366Z,48.27
2023-10-20T16:23:25.339Z,48.27
2023-10-20T16:25:53.846Z,48.00
2023-10-20T16:28:22.389Z,47.03
2023-10-20T16:30:51.183Z,47.10
2023-10-20T16:33:21.964Z,47.00
2023-10-20T16:35:56.110Z,46.83
2023-10-20T16:38:24.611Z,49.40
2023-10-20T16:40:52.966Z,46.27
2023-10-20T16:43:27.018Z,48.17
2023-10-20T16:45:59.208Z,47.57
2023-10-20T16:48:29.361Z,48.60
2023-10-20T16:51:01.649Z,46.50
2023-10-20T16:53:29.854Z,46.70
2023-10-20T16:56:00.421Z,46.37
2023-10-20T16:58:29.315Z,51.27
2023-10-20T17:01:03.441Z,49.27
2023-10-20T17:03:33.384Z,54.70
2023-10-20T17:06:05.211Z,55.83
2023-10-20T17:08:33.742Z,50.90
2023-10-20T17:11:04.563Z,47.87
2023-10-20T17:13:33.036Z,48.47
2023-10-20T17:16:05.742Z,48.43
2023-10-20T17:18:35.326Z,53.27
2023-10-20T17:21:04.224Z,48.63
2023-10-20T17:23:33.540Z,51.00
2023-10-20T17:26:01.646Z,48.53
2023-10-20T17:28:31.720Z,51.37
2023-10-20T17:31:01.208Z,48.57
2023-10-20T17:33:29.370Z,49.07
2023-10-20T17:36:05.338Z,48.27
2023-10-20T17:38:34.037Z,53.90
2023-10-20T17:41:04.123Z,51.80
2023-10-20T17:43:32.811Z,50.67
2023-10-20T17:46:05.343Z,48.67
2023-10-20T17:48:33.761Z,50.67
2023-10-20T17:51:04.041Z,50.83
2023-10-20T17:53:33.527Z,47.63
2023-10-20T17:56:04.736Z,49.03
2023-10-20T17:58:32.897Z,53.37
2023-10-20T18:01:11.074Z,47.90
2023-10-20T18:03:40.806Z,48.80
2023-10-20T18:06:17.155Z,47.30
2023-10-20T18:08:52.859Z,50.30
2023-10-20T18:11:22.030Z,47.10
2023-10-20T18:13:52.297Z,47.93
2023-10-20T18:16:22.434Z,49.90
2023-10-20T18:18:51.749Z,47.00
2023-10-20T18:21:23.110Z,48.40
2023-10-20T18:23:52.032Z,48.77
2023-10-20T18:26:20.273Z,48.77
2023-10-20T18:28:48.928Z,50.97
2023-10-20T18:31:18.753Z,49.23
2023-10-20T18:33:47.755Z,53.23
2023-10-20T18:36:16.002Z,48.40
2023-10-20T18:38:45.396Z,49.13
2023-10-20T18:41:16.702Z,56.00
2023-10-20T18:43:45.207Z,48.40
2023-10-20T18:46:13.435Z,47.97
2023-10-20T18:48:41.718Z,47.40
2023-10-20T18:51:12.004Z,47.40
2023-10-20T18:53:42.315Z,47.30
2023-10-20T18:56:13.002Z,47.17
2023-10-20T18:58:41.131Z,48.40
2023-10-20T19:01:09.379Z,54.70
2023-10-20T19:03:37.705Z,51.73
2023-10-20T19:06:09.471Z,48.60
2023-10-20T19:08:38.760Z,47.63
2023-10-20T19:11:09.420Z,47.37
2023-10-20T19:13:39.004Z,49.30
2023-10-20T19:16:07.359Z,46.80
2023-10-20T19:18:35.546Z,47.40
2023-10-20T19:21:06.111Z,47.27
2023-10-20T19:23:34.521Z,46.90
2023-10-20T19:26:05.397Z,50.50
2023-10-20T19:28:33.417Z,50.47
2023-10-20T19:31:03.245Z,53.00
2023-10-20T19:33:32.842Z,48.20
2023-10-20T19:36:01.408Z,50.40
2023-10-20T19:38:29.761Z,47.87
2023-10-20T19:40:58.836Z,47.47
2023-10-20T19:43:27.359Z,48.20
2023-10-20T19:45:57.839Z,47.37
2023-10-20T19:48:27.378Z,47.53
2023-10-20T19:50:55.641Z,48.73
2023-10-20T19:53:24.157Z,48.90
2023-10-20T19:55:52.230Z,46.93
2023-10-20T19:58:21.971Z,52.17
2023-10-20T20:00:50.331Z,47.70
2023-10-20T20:03:18.579Z,46.97
2023-10-20T20:05:48.303Z,48.90
2023-10-20T20:08:16.791Z,48.30
2023-10-20T20:10:45.044Z,46.63
2023-10-20T20:13:13.174Z,47.10
2023-10-20T20:15:40.320Z,47.50
2023-10-20T20:18:08.577Z,46.67
2023-10-20T20:20:36.803Z,47.27
2023-10-20T20:23:06.275Z,46.70
2023-10-20T20:25:34.473Z,47.67
2023-10-20T20:28:02.471Z,46.37
2023-10-20T20:30:30.526Z,46.67
2023-10-20T20:32:58.586Z,48.10
2023-10-20T20:35:27.453Z,48.67
2023-10-20T20:37:55.896Z,48.23
2023-10-20T20:40:25.414Z,46.50
2023-10-20T20:42:53.930Z,48.70
2023-10-20T20:45:22.006Z,48.73
2023-10-20T20:47:50.174Z,47.73
2023-10-20T20:50:29.970Z,46.87
2023-10-20T20:53:01.898Z,52.57
2023-10-20T20:55:33.097Z,50.73
2023-10-20T20:58:01.283Z,48.27
2023-10-20T21:00:31.228Z,48.80
2023-10-20T21:02:59.348Z,57.73
2023-10-20T21:05:27.460Z,50.07
2023-10-20T21:07:55.500Z,48.60
2023-10-20T21:10:23.579Z,49.43
2023-10-20T21:12:52.925Z,47.67
2023-10-20T21:15:21.020Z,47.27
2023-10-20T21:17:49.075Z,46.37
2023-10-20T21:20:17.343Z,47.20
2023-10-20T21:22:45.389Z,55.90
2023-10-20T21:25:14.070Z,47.90
2023-10-20T21:27:42.053Z,51.50
2023-10-20T21:30:12.688Z,47.97
2023-10-20T21:32:40.809Z,49.23
2023-10-20T21:35:09.390Z,48.07
2023-10-20T21:37:37.490Z,46.97
2023-10-20T21:40:06.719Z,46.90
2023-10-20T21:42:36.308Z,48.20
2023-10-20T21:45:05.167Z,45.80
2023-10-20T21:47:34.889Z,46.90
2023-10-20T21:50:03.002Z,47.17
2023-10-20T21:52:31.152Z,46.60
2023-10-20T21:54:59.388Z,47.67
2023-10-20T21:57:27.427Z,47.03
2023-10-20T21:59:55.524Z,46.80
2023-10-20T22:02:23.595Z,46.47
2023-10-20T22:04:55.355Z,49.03
2023-10-20T22:07:23.364Z,48.77
2023-10-20T22:09:54.309Z,51.07
2023-10-20T22:12:22.966Z,48.40
2023-10-20T22:14:54.021Z,46.93
2023-10-20T22:17:22.298Z,47.67
2023-10-20T22:19:50.552Z,46.97
2023-10-20T22:22:22.268Z,52.40
2023-10-20T22:24:50.362Z,48.53
2023-10-20T22:27:18.477Z,46.00
2023-10-20T22:29:48.375Z,46.90
2023-10-20T22:32:16.472Z,46.27
2023-10-20T22:34:44.549Z,46.33
2023-10-20T22:37:17.867Z,46.60
2023-10-20T22:39:49.891Z,46.70
2023-10-20T22:42:20.828Z,49.30
2023-10-20T22:44:50.686Z,46.90
2023-10-20T22:47:18.763Z,47.90
2023-10-20T22:49:46.923Z,47.07
2023-10-20T22:52:16.869Z,48.07
2023-10-20T22:54:46.194Z,47.80
2023-10-20T22:57:14.316Z,47.40
2023-10-20T22:59:42.535Z,46.27
2023-10-20T23:02:10.631Z,46.80
2023-10-20T23:04:39.618Z,48.00
2023-10-20T23:07:08.483Z,52.50
2023-10-20T23:09:36.992Z,48.20
2023-10-20T23:12:07.269Z,46.70
2023-10-20T23:14:35.769Z,47.10
2023-10-20T23:17:04.063Z,46.27
2023-10-20T23:19:32.081Z,48.40
2023-10-20T23:22:00.106Z,47.20
2023-10-20T23:24:28.125Z,46.47
2023-10-20T23:26:56.171Z,47.00
2023-10-20T23:29:25.515Z,51.70
2023-10-20T23:31:53.764Z,46.43
2023-10-20T23:34:21.851Z,47.30
2023-10-20T23:36:49.909Z,48.77
2023-10-20T23:39:17.964Z,45.77
2023-10-20T23:41:46.197Z,45.90
2023-10-20T23:44:14.311Z,45.87
2023-10-20T23:46:43.734Z,46.23
2023-10-20T23:49:11.738Z,45.90
2023-10-20T23:51:39.721Z,47.47
2023-10-20T23:54:08.054Z,46.67
2023-10-20T23:56:38.518Z,46.80
2023-10-20T23:59:06.683Z,47.03
